Hervey City, Illinois
Current Conditions -  °F | °C
As of 4:54 PM on Saturday 20 Dec 2014 (Local Time) from KDEC Reporting Station
Overcast Overcast  
Wind Chill: 29°   Ceiling: 2700
Heat Index: 34°   Visibility: 10mi
Dew Point: 28°   Wind: 6mph
Humidity: 79%   Direction: 140°SE
Pressure: 30.26"   Gusts: NA
Location:  39.7516°N, 88.8516°W
Report Text: KDEC 202254Z 14005KT 10SM OVC027 01/M02 A3026 RMK AO2 SLP254 T00111022
Loading
Personal Weather Stations






























Interactive Weather Map New forecast layout! Learn more

10-Day Weather Forecast

Advertisements
Track Severe Weather on mobile